createdAt,value
2023-03-06T00:00:58.398Z,93284.00
2023-03-06T00:03:27.784Z,93274.00
2023-03-06T00:05:57.416Z,93264.00
2023-03-06T00:08:29.983Z,93268.00
2023-03-06T00:10:58.005Z,93278.00
2023-03-06T00:13:30.056Z,93274.00
2023-03-06T00:16:02.116Z,93265.00
2023-03-06T00:18:29.209Z,93266.00
2023-03-06T00:20:59.093Z,93255.00
2023-03-06T00:23:29.111Z,93257.00
2023-03-06T00:25:56.061Z,93256.00
2023-03-06T00:28:23.031Z,93250.00
2023-03-06T00:30:50.000Z,93257.00
2023-03-06T00:33:19.370Z,93260.00
2023-03-06T00:35:46.283Z,93247.00
2023-03-06T00:38:13.330Z,93252.00
2023-03-06T00:40:40.305Z,93232.00
2023-03-06T00:43:07.231Z,93237.00
2023-03-06T00:45:37.135Z,93227.00
2023-03-06T00:48:04.716Z,93226.00
2023-03-06T00:50:35.270Z,93220.00
2023-03-06T00:53:02.231Z,93216.00
2023-03-06T00:55:30.850Z,93212.00
2023-03-06T00:57:57.715Z,93208.00
2023-03-06T01:00:25.012Z,93207.00
2023-03-06T01:02:53.713Z,93201.00
2023-03-06T01:05:23.267Z,93198.00
2023-03-06T01:07:52.680Z,93184.00
2023-03-06T01:10:24.706Z,93197.00
2023-03-06T01:12:54.593Z,93193.00
2023-03-06T01:15:22.487Z,93189.00
2023-03-06T01:17:53.903Z,93196.00
2023-03-06T01:20:21.517Z,93193.00
2023-03-06T01:22:54.581Z,93185.00
2023-03-06T01:25:24.082Z,93184.00
2023-03-06T01:27:51.257Z,93180.00
2023-03-06T01:30:18.271Z,93171.00
2023-03-06T01:32:48.179Z,93172.00
2023-03-06T01:35:15.538Z,93175.00
2023-03-06T01:37:42.522Z,93171.00
2023-03-06T01:40:12.646Z,93164.00
2023-03-06T01:42:40.295Z,93166.00
2023-03-06T01:45:27.182Z,93160.00
2023-03-06T01:47:54.021Z,93157.00
2023-03-06T01:50:23.477Z,93163.00
2023-03-06T01:52:58.644Z,93145.00
2023-03-06T01:55:32.598Z,93133.00
2023-03-06T01:58:07.832Z,93135.00
2023-03-06T02:00:35.016Z,93136.00
2023-03-06T02:03:10.968Z,93139.00
2023-03-06T02:05:38.889Z,93133.00
2023-03-06T02:08:08.304Z,93133.00
2023-03-06T02:10:37.399Z,93128.00
2023-03-06T02:13:04.562Z,93125.00
2023-03-06T02:15:31.533Z,93120.00
2023-03-06T02:18:00.493Z,93112.00
2023-03-06T02:20:44.630Z,93111.00
2023-03-06T02:23:17.345Z,93109.00
2023-03-06T02:25:47.586Z,93112.00
2023-03-06T02:28:19.944Z,93103.00
2023-03-06T02:30:50.090Z,93099.00
2023-03-06T02:33:26.051Z,93101.00
2023-03-06T02:36:00.615Z,93103.00
2023-03-06T02:38:47.175Z,93103.00
2023-03-06T02:41:14.330Z,93092.00
2023-03-06T02:43:48.079Z,93098.00
2023-03-06T02:46:15.077Z,93089.00
2023-03-06T02:48:42.066Z,93087.00
2023-03-06T02:51:08.899Z,93079.00
2023-03-06T02:53:35.917Z,93082.00
2023-03-06T02:56:05.334Z,93077.00
2023-03-06T02:58:34.549Z,93080.00
2023-03-06T03:01:01.446Z,93071.00
2023-03-06T03:03:28.427Z,93076.00
2023-03-06T03:05:55.365Z,93071.00
2023-03-06T03:08:25.304Z,93069.00
2023-03-06T03:10:52.292Z,93072.00
2023-03-06T03:13:19.695Z,93064.00
2023-03-06T03:15:46.620Z,93065.00
2023-03-06T03:18:13.478Z,93058.00
2023-03-06T03:20:43.104Z,93064.00
2023-03-06T03:23:12.480Z,93063.00
2023-03-06T03:25:39.330Z,93071.00
2023-03-06T03:28:08.319Z,93054.00
2023-03-06T03:30:39.461Z,93059.00
2023-03-06T03:33:06.686Z,93058.00
2023-03-06T03:35:33.860Z,93043.00
2023-03-06T03:38:03.499Z,93046.00
2023-03-06T03:40:30.372Z,93051.00
2023-03-06T03:42:59.813Z,93043.00
2023-03-06T03:45:26.751Z,93041.00
2023-03-06T03:47:53.622Z,93039.00
2023-03-06T03:50:25.230Z,93041.00
2023-03-06T03:52:51.992Z,93035.00
2023-03-06T03:55:21.375Z,93029.00
2023-03-06T03:57:48.196Z,93033.00
2023-03-06T04:00:16.697Z,93045.00
2023-03-06T04:02:44.710Z,93030.00
2023-03-06T04:05:14.988Z,93038.00
2023-03-06T04:07:46.963Z,93021.00
2023-03-06T04:10:18.911Z,93017.00
2023-03-06T04:12:45.814Z,93016.00
2023-03-06T04:15:14.860Z,93012.00
2023-03-06T04:17:41.758Z,93013.00
2023-03-06T04:20:12.223Z,93001.00
2023-03-06T04:22:41.539Z,93005.00
2023-03-06T04:25:11.200Z,93005.00
2023-03-06T04:27:38.096Z,93000.00
2023-03-06T04:30:06.939Z,93008.00
2023-03-06T04:32:36.325Z,93010.00
2023-03-06T04:35:03.785Z,93008.00
2023-03-06T04:37:31.024Z,93002.00
2023-03-06T04:39:57.984Z,93013.00
2023-03-06T04:42:29.336Z,93005.00
2023-03-06T04:44:56.231Z,93010.00
2023-03-06T04:47:23.206Z,93011.00
2023-03-06T04:49:50.113Z,93008.00
2023-03-06T04:52:19.096Z,93005.00
2023-03-06T04:54:48.410Z,93011.00
2023-03-06T04:57:16.013Z,93010.00
2023-03-06T04:59:45.391Z,93007.00
2023-03-06T05:02:12.289Z,93003.00
2023-03-06T05:04:39.371Z,93000.00
2023-03-06T05:07:08.509Z,93007.00
2023-03-06T05:09:38.255Z,93012.00
2023-03-06T05:12:10.635Z,93012.00
2023-03-06T05:14:37.527Z,93008.00
2023-03-06T05:17:07.442Z,93005.00
2023-03-06T05:19:34.321Z,93006.00
2023-03-06T05:22:01.245Z,93013.00
2023-03-06T05:24:28.143Z,93011.00
2023-03-06T05:27:00.472Z,93007.00
2023-03-06T05:29:29.711Z,93009.00
2023-03-06T05:31:56.659Z,93004.00
2023-03-06T05:34:23.580Z,92999.00
2023-03-06T05:36:52.912Z,93009.00
2023-03-06T05:39:22.909Z,93010.00
2023-03-06T05:41:49.780Z,93001.00
2023-03-06T05:44:18.975Z,93004.00
2023-03-06T05:46:45.811Z,93007.00
2023-03-06T05:49:12.656Z,93008.00
2023-03-06T05:51:44.076Z,93006.00
2023-03-06T05:54:11.143Z,93010.00
2023-03-06T05:56:38.154Z,93004.00
2023-03-06T05:59:07.237Z,93004.00
2023-03-06T06:01:34.107Z,93008.00
2023-03-06T06:04:00.936Z,93000.00
2023-03-06T06:06:27.867Z,93003.00
2023-03-06T06:08:54.704Z,93015.00
2023-03-06T06:11:21.548Z,93005.00
2023-03-06T06:13:52.000Z,93014.00
2023-03-06T06:16:21.526Z,93015.00
2023-03-06T06:18:50.865Z,93018.00
2023-03-06T06:21:20.292Z,93012.00
2023-03-06T06:23:47.126Z,93010.00
2023-03-06T06:26:16.289Z,93016.00
2023-03-06T06:28:45.411Z,93011.00
2023-03-06T06:31:15.919Z,93017.00
2023-03-06T06:33:43.479Z,93018.00
2023-03-06T06:36:21.157Z,93007.00
2023-03-06T06:38:49.374Z,93008.00
2023-03-06T06:41:39.292Z,92997.00
2023-03-06T06:44:13.758Z,93010.00
2023-03-06T06:49:28.236Z,93007.00
2023-03-06T06:51:59.886Z,93016.00
2023-03-06T06:54:27.244Z,93009.00
2023-03-06T06:56:54.551Z,93010.00
2023-03-06T06:59:23.728Z,93019.00
2023-03-06T07:01:56.402Z,93027.00
2023-03-06T07:04:23.342Z,93020.00
2023-03-06T07:06:56.953Z,93032.00
2023-03-06T07:09:30.246Z,93026.00
2023-03-06T07:11:57.902Z,93033.00
2023-03-06T07:14:27.484Z,93024.00
2023-03-06T07:16:56.828Z,93034.00
2023-03-06T07:19:28.237Z,93018.00
2023-03-06T07:21:57.448Z,93036.00
2023-03-06T07:24:27.235Z,93035.00
2023-03-06T07:26:56.412Z,93035.00
2023-03-06T07:29:25.376Z,93037.00
2023-03-06T07:31:54.840Z,93040.00
2023-03-06T07:34:22.398Z,93038.00
2023-03-06T07:36:51.417Z,93035.00
2023-03-06T07:39:18.509Z,93020.00
2023-03-06T07:41:52.205Z,93040.00
2023-03-06T07:44:19.148Z,93043.00
2023-03-06T07:46:48.189Z,93047.00
2023-03-06T07:49:15.164Z,93045.00
2023-03-06T07:51:46.699Z,93044.00
2023-03-06T07:54:15.838Z,93042.00
2023-03-06T07:56:45.340Z,93050.00
2023-03-06T07:59:15.366Z,93045.00
2023-03-06T08:01:44.805Z,93046.00
2023-03-06T08:04:11.980Z,93048.00
2023-03-06T08:06:38.926Z,93053.00
2023-03-06T08:09:05.773Z,93056.00
2023-03-06T08:11:33.361Z,93057.00
2023-03-06T08:14:00.463Z,93056.00
2023-03-06T08:16:30.041Z,93061.00
2023-03-06T08:18:57.983Z,93074.00
2023-03-06T08:21:27.690Z,93073.00
2023-03-06T08:23:55.181Z,93078.00
2023-03-06T08:26:35.547Z,93078.00
2023-03-06T08:29:08.115Z,93076.00
2023-03-06T08:31:38.608Z,93080.00
2023-03-06T08:34:15.219Z,93069.00
2023-03-06T08:36:49.753Z,93070.00
2023-03-06T08:39:23.691Z,93061.00
2023-03-06T08:41:50.896Z,93060.00
2023-03-06T08:44:17.849Z,93072.00
2023-03-06T08:46:47.713Z,93077.00
2023-03-06T08:49:14.967Z,93077.00
2023-03-06T08:51:42.448Z,93064.00
2023-03-06T08:54:12.619Z,93077.00
2023-03-06T08:56:41.738Z,93072.00
2023-03-06T08:59:09.448Z,93068.00
2023-03-06T09:01:38.009Z,93068.00
2023-03-06T09:04:09.712Z,93077.00
2023-03-06T09:06:44.076Z,93064.00
2023-03-06T09:09:12.288Z,93071.00
2023-03-06T09:11:39.914Z,93069.00
2023-03-06T09:14:09.630Z,93082.00
2023-03-06T09:16:36.597Z,93080.00
2023-03-06T09:19:03.653Z,93080.00
2023-03-06T09:21:33.123Z,93081.00
2023-03-06T09:24:02.756Z,93087.00
2023-03-06T09:26:43.504Z,93088.00
2023-03-06T09:29:12.619Z,93086.00
2023-03-06T09:31:41.785Z,93088.00
2023-03-06T09:34:08.748Z,93093.00
2023-03-06T09:36:55.650Z,93086.00
2023-03-06T09:39:25.186Z,93092.00
2023-03-06T09:41:52.772Z,93091.00
2023-03-06T09:44:28.284Z,93085.00
2023-03-06T09:47:07.107Z,93090.00
2023-03-06T09:50:09.847Z,93099.00
2023-03-06T09:52:57.455Z,93092.00
2023-03-06T09:55:38.579Z,93097.00
2023-03-06T09:58:19.006Z,93092.00
2023-03-06T10:01:00.372Z,93096.00
2023-03-06T10:03:59.104Z,93099.00
2023-03-06T10:06:34.556Z,93100.00
2023-03-06T10:09:23.104Z,93096.00
2023-03-06T10:12:04.635Z,93097.00
2023-03-06T10:14:40.381Z,93104.00
2023-03-06T10:17:17.044Z,93101.00
2023-03-06T10:19:47.597Z,93103.00
2023-03-06T10:22:31.085Z,93098.00
2023-03-06T10:25:25.464Z,93094.00
2023-03-06T10:28:03.965Z,93102.00
2023-03-06T10:30:59.957Z,93098.00
2023-03-06T10:33:59.184Z,93094.00
2023-03-06T10:36:28.549Z,93098.00
2023-03-06T10:39:12.254Z,93105.00
2023-03-06T10:41:39.152Z,93101.00
2023-03-06T10:44:06.623Z,93111.00
2023-03-06T10:46:36.408Z,93103.00
2023-03-06T10:49:22.474Z,93097.00
2023-03-06T10:52:22.907Z,93098.00
2023-03-06T10:54:49.736Z,93102.00
2023-03-06T10:57:31.759Z,93096.00
2023-03-06T11:00:23.266Z,93099.00
2023-03-06T11:03:18.821Z,93095.00
2023-03-06T11:06:04.068Z,93100.00
2023-03-06T11:08:31.920Z,93100.00
2023-03-06T11:11:07.669Z,93095.00
2023-03-06T11:13:38.616Z,93095.00
2023-03-06T11:16:26.801Z,93090.00
2023-03-06T11:19:06.995Z,93087.00
2023-03-06T11:21:39.980Z,93085.00
2023-03-06T11:24:25.555Z,93075.00
2023-03-06T11:27:25.858Z,93075.00
2023-03-06T11:29:58.105Z,93071.00
2023-03-06T11:33:00.563Z,93061.00
2023-03-06T11:35:35.858Z,93071.00
2023-03-06T11:38:51.278Z,93060.00
2023-03-06T11:41:44.460Z,93049.00
2023-03-06T11:44:26.148Z,93042.00
2023-03-06T11:47:06.841Z,93034.00
2023-03-06T11:49:41.875Z,93046.00
2023-03-06T11:52:26.657Z,93039.00
2023-03-06T11:54:59.845Z,93040.00
2023-03-06T11:57:42.120Z,93034.00
2023-03-06T12:00:44.199Z,93035.00
2023-03-06T12:04:11.761Z,93032.00
2023-03-06T12:07:07.217Z,93033.00
2023-03-06T12:09:40.142Z,93033.00
2023-03-06T12:12:32.954Z,93030.00
2023-03-06T12:15:30.335Z,93037.00
2023-03-06T12:18:36.137Z,93024.00
2023-03-06T12:21:15.504Z,93024.00
2023-03-06T12:24:04.019Z,93026.00
2023-03-06T12:27:36.933Z,93029.00
2023-03-06T12:30:34.477Z,93024.00
2023-03-06T12:33:23.807Z,93029.00
2023-03-06T12:36:30.013Z,93028.00
2023-03-06T12:39:26.103Z,93024.00
2023-03-06T12:41:58.168Z,93021.00
2023-03-06T12:44:43.158Z,93026.00
2023-03-06T12:47:15.338Z,93021.00
2023-03-06T12:49:50.541Z,93015.00
2023-03-06T12:52:30.504Z,93013.00
2023-03-06T12:55:04.899Z,93002.00
2023-03-06T12:57:31.915Z,93012.00
2023-03-06T13:00:01.101Z,93013.00
2023-03-06T13:02:45.153Z,93008.00
2023-03-06T13:05:29.952Z,93006.00
2023-03-06T13:08:44.220Z,93007.00
2023-03-06T13:11:28.463Z,93004.00
2023-03-06T13:13:56.563Z,93000.00
2023-03-06T13:16:32.078Z,92988.00
2023-03-06T13:19:19.596Z,92992.00
2023-03-06T13:22:02.035Z,92996.00
2023-03-06T13:24:38.065Z,92992.00
2023-03-06T13:27:11.493Z,92997.00
2023-03-06T13:29:38.421Z,92996.00
2023-03-06T13:32:17.304Z,92996.00
2023-03-06T13:34:51.722Z,92986.00
2023-03-06T13:37:22.178Z,92992.00
2023-03-06T13:39:55.239Z,92990.00
2023-03-06T13:42:34.312Z,92993.00
2023-03-06T13:45:23.800Z,93000.00
2023-03-06T13:48:21.117Z,92991.00
2023-03-06T13:50:52.575Z,92991.00
2023-03-06T13:53:31.690Z,92989.00
2023-03-06T13:56:27.167Z,92989.00
2023-03-06T13:59:19.589Z,92986.00
2023-03-06T14:02:13.457Z,92983.00
2023-03-06T14:05:03.836Z,92984.00
2023-03-06T14:07:44.432Z,92977.00
2023-03-06T14:10:14.305Z,92978.00
2023-03-06T14:12:58.503Z,92969.00
2023-03-06T14:15:48.726Z,92977.00
2023-03-06T14:18:20.810Z,92973.00
2023-03-06T14:21:04.728Z,92978.00
2023-03-06T14:23:42.372Z,92973.00
2023-03-06T14:26:25.849Z,92970.00
2023-03-06T14:28:52.714Z,92976.00
2023-03-06T14:31:23.298Z,92975.00
2023-03-06T14:33:56.431Z,92982.00
2023-03-06T14:36:36.383Z,92969.00
2023-03-06T14:39:15.522Z,92977.00
2023-03-06T14:41:42.456Z,92970.00
2023-03-06T14:44:26.413Z,92977.00
2023-03-06T14:46:56.394Z,92976.00
2023-03-06T14:49:27.081Z,92969.00
2023-03-06T14:52:02.006Z,92962.00
2023-03-06T14:54:34.933Z,92977.00
2023-03-06T14:57:16.939Z,92977.00
2023-03-06T14:59:58.088Z,92977.00
2023-03-06T15:05:28.839Z,92984.00
2023-03-06T15:08:03.586Z,92974.00
2023-03-06T15:10:34.077Z,92973.00
2023-03-06T15:13:36.377Z,92985.00
2023-03-06T15:16:14.016Z,92981.00
2023-03-06T15:18:54.560Z,92980.00
2023-03-06T15:21:23.237Z,92981.00
2023-03-06T15:23:55.899Z,92976.00
2023-03-06T15:26:33.336Z,92984.00
2023-03-06T15:29:10.000Z,92980.00
2023-03-06T15:31:42.702Z,92971.00
2023-03-06T15:34:09.577Z,92974.00
2023-03-06T15:36:58.376Z,92967.00
2023-03-06T15:39:43.384Z,92958.00
2023-03-06T15:42:28.939Z,92956.00
2023-03-06T15:45:05.724Z,92958.00
2023-03-06T15:47:35.104Z,92957.00
2023-03-06T15:50:04.279Z,92953.00
2023-03-06T15:52:36.531Z,92958.00
2023-03-06T15:55:03.523Z,92964.00
2023-03-06T15:57:30.430Z,92954.00
2023-03-06T16:00:00.309Z,92951.00
2023-03-06T16:02:27.697Z,92952.00
2023-03-06T16:04:56.938Z,92958.00
2023-03-06T16:07:23.848Z,92954.00
2023-03-06T16:09:53.752Z,92962.00
2023-03-06T16:12:26.081Z,92956.00
2023-03-06T16:14:58.070Z,92953.00
2023-03-06T16:17:24.926Z,92955.00
2023-03-06T16:19:54.738Z,92956.00
2023-03-06T16:22:23.734Z,92954.00
2023-03-06T16:24:50.944Z,92955.00
2023-03-06T16:27:19.852Z,92958.00
2023-03-06T16:29:48.944Z,92966.00
2023-03-06T16:32:18.039Z,92969.00
2023-03-06T16:34:45.015Z,92960.00
2023-03-06T16:37:15.975Z,92965.00
2023-03-06T16:39:42.972Z,92966.00
2023-03-06T16:42:16.453Z,92960.00
2023-03-06T16:44:43.373Z,92964.00
2023-03-06T16:47:12.389Z,92971.00
2023-03-06T16:49:39.378Z,92969.00
2023-03-06T16:52:11.104Z,92970.00
2023-03-06T16:54:38.088Z,92971.00
2023-03-06T16:57:05.007Z,92973.00
2023-03-06T16:59:36.930Z,92975.00
2023-03-06T17:02:06.302Z,92978.00
2023-03-06T17:04:33.206Z,92979.00
2023-03-06T17:07:03.043Z,92977.00
2023-03-06T17:09:30.092Z,92981.00
2023-03-06T17:11:57.116Z,92980.00
2023-03-06T17:14:24.070Z,92981.00
2023-03-06T17:16:50.978Z,92993.00
2023-03-06T17:19:21.010Z,92993.00
2023-03-06T17:21:47.882Z,92990.00
2023-03-06T17:24:14.770Z,92992.00
2023-03-06T17:26:43.011Z,92992.00
2023-03-06T17:29:09.913Z,92989.00
2023-03-06T17:31:38.984Z,92994.00
2023-03-06T17:34:06.005Z,92986.00
2023-03-06T17:36:33.243Z,92995.00
2023-03-06T17:39:04.339Z,92990.00
2023-03-06T17:41:32.918Z,93001.00
2023-03-06T17:44:01.618Z,92999.00
2023-03-06T17:46:34.648Z,92994.00
2023-03-06T17:49:04.570Z,93005.00
2023-03-06T17:51:36.085Z,93003.00
2023-03-06T17:54:10.091Z,93013.00
2023-03-06T17:56:39.480Z,93007.00
2023-03-06T17:59:08.899Z,93013.00
2023-03-06T18:01:36.061Z,93008.00
2023-03-06T18:04:03.887Z,93009.00
2023-03-06T18:06:33.982Z,93009.00
2023-03-06T18:09:01.499Z,93011.00
2023-03-06T18:11:28.892Z,93018.00
2023-03-06T18:13:55.776Z,93022.00
2023-03-06T18:16:26.571Z,93012.00
2023-03-06T18:18:55.879Z,93017.00
2023-03-06T18:21:24.414Z,93013.00
2023-03-06T18:23:51.624Z,93015.00
2023-03-06T18:26:27.870Z,93017.00
2023-03-06T18:29:03.636Z,93020.00
2023-03-06T18:31:34.693Z,93027.00
2023-03-06T18:34:11.025Z,93020.00
2023-03-06T18:36:39.226Z,93027.00
2023-03-06T18:39:09.654Z,93027.00
2023-03-06T18:41:37.310Z,93024.00
2023-03-06T18:44:05.251Z,93028.00
2023-03-06T18:46:38.019Z,93035.00
2023-03-06T18:49:07.986Z,93037.00
2023-03-06T18:51:37.708Z,93035.00
2023-03-06T18:54:08.626Z,93046.00
2023-03-06T18:56:39.850Z,93049.00
2023-03-06T18:59:07.334Z,93052.00
2023-03-06T19:01:39.555Z,93039.00
2023-03-06T19:04:06.561Z,93050.00
2023-03-06T19:06:33.468Z,93054.00
2023-03-06T19:09:02.761Z,93057.00
2023-03-06T19:11:30.491Z,93057.00
2023-03-06T19:14:00.438Z,93048.00
2023-03-06T19:16:31.215Z,93051.00
2023-03-06T19:18:59.520Z,93046.00
2023-03-06T19:21:30.143Z,93043.00
2023-03-06T19:23:58.069Z,93038.00
2023-03-06T19:26:26.517Z,93047.00
2023-03-06T19:28:53.696Z,93042.00
2023-03-06T19:31:25.284Z,93036.00
2023-03-06T19:33:53.118Z,93041.00
2023-03-06T19:36:27.311Z,93036.00
2023-03-06T19:39:02.918Z,93037.00
2023-03-06T19:41:29.995Z,93032.00
2023-03-06T19:44:02.603Z,93033.00
2023-03-06T19:46:30.710Z,93032.00
2023-03-06T19:49:11.700Z,93041.00
2023-03-06T19:51:43.404Z,93029.00
2023-03-06T19:54:14.901Z,93037.00
2023-03-06T19:56:42.057Z,93048.00
2023-03-06T19:59:10.976Z,93053.00
2023-03-06T20:01:40.441Z,93041.00
2023-03-06T20:04:10.399Z,93037.00
2023-03-06T20:06:40.058Z,93050.00
2023-03-06T20:09:08.921Z,93043.00
2023-03-06T20:11:36.283Z,93041.00
2023-03-06T20:14:06.217Z,93038.00
2023-03-06T20:16:36.430Z,93043.00
2023-03-06T20:19:05.281Z,93036.00
2023-03-06T20:21:37.544Z,93043.00
2023-03-06T20:24:10.768Z,93045.00
2023-03-06T20:26:40.143Z,93040.00
2023-03-06T20:29:10.191Z,93045.00
2023-03-06T20:31:40.761Z,93046.00
2023-03-06T20:34:07.998Z,93033.00
2023-03-06T20:36:40.396Z,93032.00
2023-03-06T20:39:13.737Z,93033.00
2023-03-06T20:41:41.213Z,93030.00
2023-03-06T20:44:13.469Z,93035.00
2023-03-06T20:46:41.273Z,93031.00
2023-03-06T20:49:08.787Z,93032.00
2023-03-06T20:51:39.234Z,93032.00
2023-03-06T20:54:15.320Z,93032.00
2023-03-06T20:56:46.692Z,93031.00
2023-03-06T20:59:18.722Z,93031.00
2023-03-06T21:01:47.885Z,93032.00
2023-03-06T21:04:17.633Z,93034.00
2023-03-06T21:06:46.874Z,93033.00
2023-03-06T21:09:16.441Z,93030.00
2023-03-06T21:11:48.155Z,93033.00
2023-03-06T21:14:15.870Z,93031.00
2023-03-06T21:16:43.282Z,93024.00
2023-03-06T21:19:13.049Z,93027.00
2023-03-06T21:21:42.327Z,93024.00
2023-03-06T21:24:09.690Z,93021.00
2023-03-06T21:26:36.729Z,93024.00
2023-03-06T21:29:04.471Z,93021.00
2023-03-06T21:31:33.290Z,93020.00
2023-03-06T21:34:00.936Z,93016.00
2023-03-06T21:36:28.664Z,93018.00
2023-03-06T21:38:55.838Z,93016.00
2023-03-06T21:41:27.752Z,93018.00
2023-03-06T21:43:57.030Z,93016.00
2023-03-06T21:46:27.818Z,93010.00
2023-03-06T21:48:58.636Z,93003.00
2023-03-06T21:51:27.101Z,93004.00
2023-03-06T21:53:57.230Z,93001.00
2023-03-06T21:56:25.567Z,93005.00
2023-03-06T21:58:55.423Z,92992.00
2023-03-06T22:01:26.201Z,92992.00
2023-03-06T22:03:53.804Z,93003.00
2023-03-06T22:06:26.943Z,92998.00
2023-03-06T22:08:56.660Z,93002.00
2023-03-06T22:11:26.167Z,92994.00
2023-03-06T22:13:53.451Z,92996.00
2023-03-06T22:16:20.904Z,92986.00
2023-03-06T22:18:50.473Z,92983.00
2023-03-06T22:21:22.161Z,92978.00
2023-03-06T22:23:59.639Z,92984.00
2023-03-06T22:26:29.028Z,92988.00
2023-03-06T22:28:56.485Z,92990.00
2023-03-06T22:31:29.386Z,92982.00
2023-03-06T22:34:00.417Z,92980.00
2023-03-06T22:36:35.110Z,92970.00
2023-03-06T22:39:04.591Z,92969.00
2023-03-06T22:41:31.609Z,92973.00
2023-03-06T22:44:02.527Z,92985.00
2023-03-06T22:46:33.033Z,92982.00
2023-03-06T22:49:05.217Z,92977.00
2023-03-06T22:51:37.423Z,92972.00
2023-03-06T22:54:07.996Z,92963.00
2023-03-06T22:56:35.313Z,92965.00
2023-03-06T22:59:05.267Z,92964.00
2023-03-06T23:01:36.806Z,92972.00
2023-03-06T23:04:11.260Z,92975.00
2023-03-06T23:06:46.970Z,92969.00
2023-03-06T23:09:20.485Z,92964.00
2023-03-06T23:11:53.152Z,92961.00
2023-03-06T23:14:22.359Z,92971.00
2023-03-06T23:16:51.804Z,92968.00
2023-03-06T23:19:18.685Z,92967.00
2023-03-06T23:21:49.647Z,92971.00
2023-03-06T23:24:17.158Z,92969.00
2023-03-06T23:26:44.126Z,92964.00
2023-03-06T23:29:11.110Z,92961.00
2023-03-06T23:31:43.060Z,92960.00
2023-03-06T23:34:17.007Z,92961.00
2023-03-06T23:36:43.827Z,92965.00
2023-03-06T23:39:12.600Z,92969.00
2023-03-06T23:41:41.763Z,92964.00
2023-03-06T23:44:08.752Z,92958.00
2023-03-06T23:46:37.772Z,92964.00
2023-03-06T23:49:04.757Z,92956.00
2023-03-06T23:51:35.979Z,92944.00
2023-03-06T23:54:07.418Z,92954.00
2023-03-06T23:56:36.799Z,92943.00
2023-03-06T23:59:03.647Z,92942.00
